sensor_id;sensor_type;location;lat;lon;timestamp;P1;durP1;ratioP1;P2;durP2;ratioP2
10872;SDS011;34586;53.616;10.032;2022-08-19T00:01:47;15.77;;;13.30;;
10872;SDS011;34586;53.616;10.032;2022-08-19T00:04:14;17.23;;;15.43;;
10872;SDS011;34586;53.616;10.032;2022-08-19T00:06:42;20.50;;;16.63;;
10872;SDS011;34586;53.616;10.032;2022-08-19T00:09:09;18.13;;;15.70;;
10872;SDS011;34586;53.616;10.032;2022-08-19T00:11:41;20.33;;;17.27;;
10872;SDS011;34586;53.616;10.032;2022-08-19T00:14:09;22.03;;;16.30;;
10872;SDS011;34586;53.616;10.032;2022-08-19T00:16:38;19.10;;;15.27;;
10872;SDS011;34586;53.616;10.032;2022-08-19T00:19:05;18.50;;;16.00;;
10872;SDS011;34586;53.616;10.032;2022-08-19T00:21:32;18.57;;;15.17;;
10872;SDS011;34586;53.616;10.032;2022-08-19T00:24:04;18.30;;;16.20;;
10872;SDS011;34586;53.616;10.032;2022-08-19T00:26:31;20.07;;;16.57;;
10872;SDS011;34586;53.616;10.032;2022-08-19T00:28:58;20.33;;;14.93;;
10872;SDS011;34586;53.616;10.032;2022-08-19T00:31:25;20.73;;;15.17;;
10872;SDS011;34586;53.616;10.032;2022-08-19T00:33:52;18.87;;;15.50;;
10872;SDS011;34586;53.616;10.032;2022-08-19T00:36:18;24.50;;;15.97;;
10872;SDS011;34586;53.616;10.032;2022-08-19T00:38:44;20.20;;;15.30;;
10872;SDS011;34586;53.616;10.032;2022-08-19T00:41:14;21.97;;;16.10;;
10872;SDS011;34586;53.616;10.032;2022-08-19T00:44:05;20.30;;;17.17;;
10872;SDS011;34586;53.616;10.032;2022-08-19T00:46:40;21.27;;;16.10;;
10872;SDS011;34586;53.616;10.032;2022-08-19T00:49:10;23.77;;;16.57;;
10872;SDS011;34586;53.616;10.032;2022-08-19T00:51:40;19.63;;;15.27;;
10872;SDS011;34586;53.616;10.032;2022-08-19T00:54:07;20.27;;;17.90;;
10872;SDS011;34586;53.616;10.032;2022-08-19T00:56:34;21.40;;;17.87;;
10872;SDS011;34586;53.616;10.032;2022-08-19T00:59:00;23.33;;;17.93;;
10872;SDS011;34586;53.616;10.032;2022-08-19T01:01:27;21.93;;;17.50;;
10872;SDS011;34586;53.616;10.032;2022-08-19T01:03:52;22.07;;;16.70;;
10872;SDS011;34586;53.616;10.032;2022-08-19T01:06:18;20.03;;;16.40;;
10872;SDS011;34586;53.616;10.032;2022-08-19T01:08:44;22.90;;;16.53;;
10872;SDS011;34586;53.616;10.032;2022-08-19T01:11:09;20.43;;;16.23;;
10872;SDS011;34586;53.616;10.032;2022-08-19T01:13:36;19.10;;;16.13;;
10872;SDS011;34586;53.616;10.032;2022-08-19T01:16:03;24.40;;;17.57;;
10872;SDS011;34586;53.616;10.032;2022-08-19T01:18:31;20.03;;;16.50;;
10872;SDS011;34586;53.616;10.032;2022-08-19T01:21:01;19.57;;;16.10;;
10872;SDS011;34586;53.616;10.032;2022-08-19T01:23:32;20.13;;;15.70;;
10872;SDS011;34586;53.616;10.032;2022-08-19T01:26:16;24.23;;;16.17;;
10872;SDS011;34586;53.616;10.032;2022-08-19T01:28:45;19.97;;;14.93;;
10872;SDS011;34586;53.616;10.032;2022-08-19T01:31:14;18.20;;;15.20;;
10872;SDS011;34586;53.616;10.032;2022-08-19T01:33:41;21.63;;;15.60;;
10872;SDS011;34586;53.616;10.032;2022-08-19T01:36:09;20.37;;;14.50;;
10872;SDS011;34586;53.616;10.032;2022-08-19T01:38:38;19.20;;;14.80;;
10872;SDS011;34586;53.616;10.032;2022-08-19T01:41:07;19.33;;;15.77;;
10872;SDS011;34586;53.616;10.032;2022-08-19T01:43:34;23.37;;;14.30;;
10872;SDS011;34586;53.616;10.032;2022-08-19T01:46:00;18.63;;;15.40;;
10872;SDS011;34586;53.616;10.032;2022-08-19T01:48:26;21.60;;;16.43;;
10872;SDS011;34586;53.616;10.032;2022-08-19T01:50:54;27.37;;;18.37;;
10872;SDS011;34586;53.616;10.032;2022-08-19T01:53:20;20.17;;;16.47;;
10872;SDS011;34586;53.616;10.032;2022-08-19T01:55:46;25.60;;;17.83;;
10872;SDS011;34586;53.616;10.032;2022-08-19T01:58:18;22.10;;;18.03;;
10872;SDS011;34586;53.616;10.032;2022-08-19T02:00:47;25.27;;;18.00;;
10872;SDS011;34586;53.616;10.032;2022-08-19T02:03:13;22.33;;;17.80;;
10872;SDS011;34586;53.616;10.032;2022-08-19T02:05:39;24.47;;;19.30;;
10872;SDS011;34586;53.616;10.032;2022-08-19T02:08:05;26.33;;;18.73;;
10872;SDS011;34586;53.616;10.032;2022-08-19T02:10:31;25.53;;;19.03;;
10872;SDS011;34586;53.616;10.032;2022-08-19T02:12:57;29.80;;;19.57;;
10872;SDS011;34586;53.616;10.032;2022-08-19T02:15:23;24.63;;;18.87;;
10872;SDS011;34586;53.616;10.032;2022-08-19T02:17:50;25.90;;;18.90;;
10872;SDS011;34586;53.616;10.032;2022-08-19T02:20:16;27.00;;;19.13;;
10872;SDS011;34586;53.616;10.032;2022-08-19T02:22:42;27.13;;;19.47;;
10872;SDS011;34586;53.616;10.032;2022-08-19T02:25:09;25.20;;;18.00;;
10872;SDS011;34586;53.616;10.032;2022-08-19T02:27:36;26.80;;;18.63;;
10872;SDS011;34586;53.616;10.032;2022-08-19T02:30:02;29.10;;;18.30;;
10872;SDS011;34586;53.616;10.032;2022-08-19T02:32:29;29.03;;;18.73;;
10872;SDS011;34586;53.616;10.032;2022-08-19T02:34:55;29.27;;;19.27;;
10872;SDS011;34586;53.616;10.032;2022-08-19T02:37:21;26.77;;;18.27;;
10872;SDS011;34586;53.616;10.032;2022-08-19T02:40:13;28.97;;;18.83;;
10872;SDS011;34586;53.616;10.032;2022-08-19T02:42:39;30.73;;;20.63;;
10872;SDS011;34586;53.616;10.032;2022-08-19T02:45:06;27.43;;;18.43;;
10872;SDS011;34586;53.616;10.032;2022-08-19T02:47:32;29.43;;;21.30;;
10872;SDS011;34586;53.616;10.032;2022-08-19T02:50:00;30.60;;;19.77;;
10872;SDS011;34586;53.616;10.032;2022-08-19T02:52:27;32.27;;;20.43;;
10872;SDS011;34586;53.616;10.032;2022-08-19T02:54:53;34.03;;;21.17;;
10872;SDS011;34586;53.616;10.032;2022-08-19T02:57:20;30.47;;;20.03;;
10872;SDS011;34586;53.616;10.032;2022-08-19T02:59:46;39.10;;;22.37;;
10872;SDS011;34586;53.616;10.032;2022-08-19T03:02:11;30.20;;;20.07;;
10872;SDS011;34586;53.616;10.032;2022-08-19T03:04:37;35.03;;;21.70;;
10872;SDS011;34586;53.616;10.032;2022-08-19T03:07:02;33.17;;;20.40;;
10872;SDS011;34586;53.616;10.032;2022-08-19T03:09:28;33.60;;;22.40;;
10872;SDS011;34586;53.616;10.032;2022-08-19T03:11:55;32.13;;;21.43;;
10872;SDS011;34586;53.616;10.032;2022-08-19T03:14:20;30.23;;;18.57;;
10872;SDS011;34586;53.616;10.032;2022-08-19T03:16:47;35.17;;;22.07;;
10872;SDS011;34586;53.616;10.032;2022-08-19T03:19:18;36.67;;;21.50;;
10872;SDS011;34586;53.616;10.032;2022-08-19T03:21:46;34.03;;;22.17;;
10872;SDS011;34586;53.616;10.032;2022-08-19T03:24:12;36.37;;;21.47;;
10872;SDS011;34586;53.616;10.032;2022-08-19T03:26:39;35.57;;;21.20;;
10872;SDS011;34586;53.616;10.032;2022-08-19T03:29:06;40.90;;;23.23;;
10872;SDS011;34586;53.616;10.032;2022-08-19T03:31:33;40.27;;;21.40;;
10872;SDS011;34586;53.616;10.032;2022-08-19T03:33:58;38.83;;;19.87;;
10872;SDS011;34586;53.616;10.032;2022-08-19T03:36:25;31.73;;;20.57;;
10872;SDS011;34586;53.616;10.032;2022-08-19T03:38:53;30.70;;;19.97;;
10872;SDS011;34586;53.616;10.032;2022-08-19T03:41:21;34.37;;;19.47;;
10872;SDS011;34586;53.616;10.032;2022-08-19T03:43:49;37.20;;;19.57;;
10872;SDS011;34586;53.616;10.032;2022-08-19T03:46:18;35.07;;;20.33;;
10872;SDS011;34586;53.616;10.032;2022-08-19T03:48:46;32.97;;;18.23;;
10872;SDS011;34586;53.616;10.032;2022-08-19T03:51:16;31.23;;;18.73;;
10872;SDS011;34586;53.616;10.032;2022-08-19T03:53:44;25.97;;;16.83;;
10872;SDS011;34586;53.616;10.032;2022-08-19T03:56:11;38.00;;;20.80;;
10872;SDS011;34586;53.616;10.032;2022-08-19T03:58:38;31.10;;;20.30;;
10872;SDS011;34586;53.616;10.032;2022-08-19T04:01:09;28.63;;;18.63;;
10872;SDS011;34586;53.616;10.032;2022-08-19T04:03:36;27.43;;;19.00;;
10872;SDS011;34586;53.616;10.032;2022-08-19T04:06:10;31.20;;;19.60;;
10872;SDS011;34586;53.616;10.032;2022-08-19T04:08:39;30.33;;;19.87;;
10872;SDS011;34586;53.616;10.032;2022-08-19T04:11:07;25.07;;;17.30;;
10872;SDS011;34586;53.616;10.032;2022-08-19T04:13:38;32.00;;;19.13;;
10872;SDS011;34586;53.616;10.032;2022-08-19T04:16:04;32.50;;;18.97;;
10872;SDS011;34586;53.616;10.032;2022-08-19T04:18:31;31.37;;;19.93;;
10872;SDS011;34586;53.616;10.032;2022-08-19T04:20:58;31.47;;;20.03;;
10872;SDS011;34586;53.616;10.032;2022-08-19T04:23:25;32.90;;;19.80;;
10872;SDS011;34586;53.616;10.032;2022-08-19T04:25:52;32.37;;;22.73;;
10872;SDS011;34586;53.616;10.032;2022-08-19T04:28:19;32.27;;;22.47;;
10872;SDS011;34586;53.616;10.032;2022-08-19T04:30:46;34.53;;;23.17;;
10872;SDS011;34586;53.616;10.032;2022-08-19T04:33:15;39.80;;;25.07;;
10872;SDS011;34586;53.616;10.032;2022-08-19T04:35:45;34.63;;;23.00;;
10872;SDS011;34586;53.616;10.032;2022-08-19T04:38:13;35.70;;;22.83;;
10872;SDS011;34586;53.616;10.032;2022-08-19T04:40:43;43.93;;;27.13;;
10872;SDS011;34586;53.616;10.032;2022-08-19T04:43:30;45.77;;;26.53;;
10872;SDS011;34586;53.616;10.032;2022-08-19T04:45:56;41.73;;;26.23;;
10872;SDS011;34586;53.616;10.032;2022-08-19T04:48:22;38.43;;;27.17;;
10872;SDS011;34586;53.616;10.032;2022-08-19T04:50:55;40.03;;;25.80;;
10872;SDS011;34586;53.616;10.032;2022-08-19T04:53:32;41.20;;;28.53;;
10872;SDS011;34586;53.616;10.032;2022-08-19T04:55:59;45.53;;;27.30;;
10872;SDS011;34586;53.616;10.032;2022-08-19T04:58:29;37.97;;;26.27;;
10872;SDS011;34586;53.616;10.032;2022-08-19T05:00:54;46.87;;;28.27;;
10872;SDS011;34586;53.616;10.032;2022-08-19T05:03:20;40.97;;;26.93;;
10872;SDS011;34586;53.616;10.032;2022-08-19T05:05:46;39.07;;;24.93;;
10872;SDS011;34586;53.616;10.032;2022-08-19T05:08:14;39.80;;;26.83;;
10872;SDS011;34586;53.616;10.032;2022-08-19T05:10:44;43.50;;;26.10;;
10872;SDS011;34586;53.616;10.032;2022-08-19T05:13:15;42.23;;;26.83;;
10872;SDS011;34586;53.616;10.032;2022-08-19T05:15:42;40.57;;;25.67;;
10872;SDS011;34586;53.616;10.032;2022-08-19T05:18:08;43.00;;;25.47;;
10872;SDS011;34586;53.616;10.032;2022-08-19T05:20:53;40.47;;;26.37;;
10872;SDS011;34586;53.616;10.032;2022-08-19T05:23:37;41.40;;;25.60;;
10872;SDS011;34586;53.616;10.032;2022-08-19T05:26:03;35.90;;;25.17;;
10872;SDS011;34586;53.616;10.032;2022-08-19T05:28:29;45.13;;;24.67;;
10872;SDS011;34586;53.616;10.032;2022-08-19T05:30:55;44.00;;;27.43;;
10872;SDS011;34586;53.616;10.032;2022-08-19T05:33:21;40.57;;;27.37;;
10872;SDS011;34586;53.616;10.032;2022-08-19T05:35:47;37.73;;;25.67;;
10872;SDS011;34586;53.616;10.032;2022-08-19T05:38:14;44.97;;;28.27;;
10872;SDS011;34586;53.616;10.032;2022-08-19T05:40:41;39.73;;;27.10;;
10872;SDS011;34586;53.616;10.032;2022-08-19T05:43:12;37.97;;;25.80;;
10872;SDS011;34586;53.616;10.032;2022-08-19T05:45:42;43.97;;;27.67;;
10872;SDS011;34586;53.616;10.032;2022-08-19T05:48:08;39.47;;;25.60;;
10872;SDS011;34586;53.616;10.032;2022-08-19T05:50:36;39.07;;;27.07;;
10872;SDS011;34586;53.616;10.032;2022-08-19T05:53:03;40.40;;;24.67;;
10872;SDS011;34586;53.616;10.032;2022-08-19T05:55:29;35.10;;;24.47;;
10872;SDS011;34586;53.616;10.032;2022-08-19T05:57:55;41.70;;;26.30;;
10872;SDS011;34586;53.616;10.032;2022-08-19T06:00:21;35.13;;;23.97;;
10872;SDS011;34586;53.616;10.032;2022-08-19T06:02:48;36.03;;;24.60;;
10872;SDS011;34586;53.616;10.032;2022-08-19T06:05:13;39.17;;;24.50;;
10872;SDS011;34586;53.616;10.032;2022-08-19T06:07:39;41.40;;;25.07;;
10872;SDS011;34586;53.616;10.032;2022-08-19T06:10:05;40.27;;;25.90;;
10872;SDS011;34586;53.616;10.032;2022-08-19T06:12:34;39.60;;;24.60;;
10872;SDS011;34586;53.616;10.032;2022-08-19T06:15:02;37.03;;;23.83;;
10872;SDS011;34586;53.616;10.032;2022-08-19T06:17:30;36.90;;;24.33;;
10872;SDS011;34586;53.616;10.032;2022-08-19T06:19:56;39.73;;;24.93;;
10872;SDS011;34586;53.616;10.032;2022-08-19T06:22:23;30.87;;;21.93;;
10872;SDS011;34586;53.616;10.032;2022-08-19T06:24:49;37.97;;;24.90;;
10872;SDS011;34586;53.616;10.032;2022-08-19T06:27:17;37.60;;;23.50;;
10872;SDS011;34586;53.616;10.032;2022-08-19T06:29:43;41.20;;;26.00;;
10872;SDS011;34586;53.616;10.032;2022-08-19T06:32:11;39.83;;;24.27;;
10872;SDS011;34586;53.616;10.032;2022-08-19T06:34:39;38.27;;;25.17;;
10872;SDS011;34586;53.616;10.032;2022-08-19T06:37:06;40.80;;;25.30;;
10872;SDS011;34586;53.616;10.032;2022-08-19T06:39:33;37.67;;;25.23;;
10872;SDS011;34586;53.616;10.032;2022-08-19T06:42:02;44.00;;;28.60;;
10872;SDS011;34586;53.616;10.032;2022-08-19T06:44:32;44.43;;;26.50;;
10872;SDS011;34586;53.616;10.032;2022-08-19T06:47:02;40.57;;;26.27;;
10872;SDS011;34586;53.616;10.032;2022-08-19T06:49:29;36.43;;;24.63;;
10872;SDS011;34586;53.616;10.032;2022-08-19T06:51:57;38.77;;;26.70;;
10872;SDS011;34586;53.616;10.032;2022-08-19T06:54:24;46.03;;;28.47;;
10872;SDS011;34586;53.616;10.032;2022-08-19T06:56:50;46.90;;;26.53;;
10872;SDS011;34586;53.616;10.032;2022-08-19T06:59:20;44.07;;;27.07;;
10872;SDS011;34586;53.616;10.032;2022-08-19T07:01:50;39.50;;;26.03;;
10872;SDS011;34586;53.616;10.032;2022-08-19T07:04:19;39.50;;;28.07;;
10872;SDS011;34586;53.616;10.032;2022-08-19T07:06:47;39.57;;;26.50;;
10872;SDS011;34586;53.616;10.032;2022-08-19T07:09:14;37.67;;;24.53;;
10872;SDS011;34586;53.616;10.032;2022-08-19T07:11:46;40.57;;;27.17;;
10872;SDS011;34586;53.616;10.032;2022-08-19T07:14:13;43.97;;;26.70;;
10872;SDS011;34586;53.616;10.032;2022-08-19T07:16:39;38.33;;;24.27;;
10872;SDS011;34586;53.616;10.032;2022-08-19T07:19:05;41.47;;;26.17;;
10872;SDS011;34586;53.616;10.032;2022-08-19T07:21:31;42.40;;;26.97;;
10872;SDS011;34586;53.616;10.032;2022-08-19T07:23:58;37.17;;;24.50;;
10872;SDS011;34586;53.616;10.032;2022-08-19T07:26:29;44.73;;;26.67;;
10872;SDS011;34586;53.616;10.032;2022-08-19T07:28:57;40.73;;;25.00;;
10872;SDS011;34586;53.616;10.032;2022-08-19T07:31:25;35.50;;;24.43;;
10872;SDS011;34586;53.616;10.032;2022-08-19T07:33:52;43.17;;;25.40;;
10872;SDS011;34586;53.616;10.032;2022-08-19T07:36:23;42.50;;;25.40;;
10872;SDS011;34586;53.616;10.032;2022-08-19T07:38:54;31.53;;;21.67;;
10872;SDS011;34586;53.616;10.032;2022-08-19T07:41:22;39.70;;;24.83;;
10872;SDS011;34586;53.616;10.032;2022-08-19T07:43:50;36.50;;;22.10;;
10872;SDS011;34586;53.616;10.032;2022-08-19T07:46:17;35.83;;;24.73;;
10872;SDS011;34586;53.616;10.032;2022-08-19T07:48:45;30.83;;;20.23;;
10872;SDS011;34586;53.616;10.032;2022-08-19T07:51:12;32.63;;;20.73;;
10872;SDS011;34586;53.616;10.032;2022-08-19T07:53:40;32.07;;;22.27;;
10872;SDS011;34586;53.616;10.032;2022-08-19T07:56:06;29.70;;;20.47;;
10872;SDS011;34586;53.616;10.032;2022-08-19T07:58:34;29.57;;;20.50;;
10872;SDS011;34586;53.616;10.032;2022-08-19T08:01:03;34.03;;;22.73;;
10872;SDS011;34586;53.616;10.032;2022-08-19T08:03:30;29.20;;;20.03;;
10872;SDS011;34586;53.616;10.032;2022-08-19T08:06:15;27.47;;;20.00;;
10872;SDS011;34586;53.616;10.032;2022-08-19T08:08:59;31.20;;;21.67;;
10872;SDS011;34586;53.616;10.032;2022-08-19T08:11:46;29.63;;;20.83;;
10872;SDS011;34586;53.616;10.032;2022-08-19T08:14:37;31.67;;;21.33;;
10872;SDS011;34586;53.616;10.032;2022-08-19T08:17:06;28.40;;;19.63;;
10872;SDS011;34586;53.616;10.032;2022-08-19T08:19:33;23.23;;;16.30;;
10872;SDS011;34586;53.616;10.032;2022-08-19T08:21:59;27.20;;;17.83;;
10872;SDS011;34586;53.616;10.032;2022-08-19T08:24:26;26.30;;;17.93;;
10872;SDS011;34586;53.616;10.032;2022-08-19T08:26:53;23.30;;;17.53;;
10872;SDS011;34586;53.616;10.032;2022-08-19T08:29:19;26.33;;;17.33;;
10872;SDS011;34586;53.616;10.032;2022-08-19T08:31:45;22.17;;;17.27;;
10872;SDS011;34586;53.616;10.032;2022-08-19T08:34:12;23.70;;;15.37;;
10872;SDS011;34586;53.616;10.032;2022-08-19T08:36:39;23.17;;;17.47;;
10872;SDS011;34586;53.616;10.032;2022-08-19T08:39:08;19.03;;;14.37;;
10872;SDS011;34586;53.616;10.032;2022-08-19T08:41:57;19.53;;;14.70;;
10872;SDS011;34586;53.616;10.032;2022-08-19T08:44:37;20.60;;;14.87;;
10872;SDS011;34586;53.616;10.032;2022-08-19T08:47:15;25.03;;;16.73;;
10872;SDS011;34586;53.616;10.032;2022-08-19T08:50:04;24.70;;;16.07;;
10872;SDS011;34586;53.616;10.032;2022-08-19T08:52:34;20.50;;;14.73;;
10872;SDS011;34586;53.616;10.032;2022-08-19T08:55:08;24.13;;;15.27;;
10872;SDS011;34586;53.616;10.032;2022-08-19T08:57:43;19.43;;;14.80;;
10872;SDS011;34586;53.616;10.032;2022-08-19T09:00:18;18.77;;;14.33;;
10872;SDS011;34586;53.616;10.032;2022-08-19T09:02:46;25.80;;;16.43;;
10872;SDS011;34586;53.616;10.032;2022-08-19T09:05:12;20.33;;;15.50;;
10872;SDS011;34586;53.616;10.032;2022-08-19T09:07:45;23.17;;;14.20;;
10872;SDS011;34586;53.616;10.032;2022-08-19T09:10:22;23.73;;;15.73;;
10872;SDS011;34586;53.616;10.032;2022-08-19T09:13:44;18.13;;;14.43;;
10872;SDS011;34586;53.616;10.032;2022-08-19T09:18:43;19.67;;;14.57;;
10872;SDS011;34586;53.616;10.032;2022-08-19T09:21:14;18.50;;;14.47;;
10872;SDS011;34586;53.616;10.032;2022-08-19T09:23:40;20.73;;;14.90;;
10872;SDS011;34586;53.616;10.032;2022-08-19T09:26:08;15.07;;;12.63;;
10872;SDS011;34586;53.616;10.032;2022-08-19T09:28:40;20.27;;;13.93;;
10872;SDS011;34586;53.616;10.032;2022-08-19T09:31:18;22.03;;;15.50;;
10872;SDS011;34586;53.616;10.032;2022-08-19T09:33:46;20.67;;;14.27;;
10872;SDS011;34586;53.616;10.032;2022-08-19T09:36:17;19.70;;;15.23;;
10872;SDS011;34586;53.616;10.032;2022-08-19T09:38:45;18.90;;;13.53;;
10872;SDS011;34586;53.616;10.032;2022-08-19T09:41:15;20.00;;;13.57;;
10872;SDS011;34586;53.616;10.032;2022-08-19T09:43:44;20.20;;;14.73;;
10872;SDS011;34586;53.616;10.032;2022-08-19T09:46:12;19.73;;;13.77;;
10872;SDS011;34586;53.616;10.032;2022-08-19T09:48:38;21.73;;;14.13;;
10872;SDS011;34586;53.616;10.032;2022-08-19T09:51:06;19.87;;;12.20;;
10872;SDS011;34586;53.616;10.032;2022-08-19T09:53:34;20.57;;;14.37;;
10872;SDS011;34586;53.616;10.032;2022-08-19T09:56:01;23.17;;;14.57;;
10872;SDS011;34586;53.616;10.032;2022-08-19T09:58:27;21.50;;;13.87;;
10872;SDS011;34586;53.616;10.032;2022-08-19T10:00:54;17.10;;;11.43;;
10872;SDS011;34586;53.616;10.032;2022-08-19T10:03:21;19.30;;;12.20;;
10872;SDS011;34586;53.616;10.032;2022-08-19T10:05:47;16.73;;;11.07;;
10872;SDS011;34586;53.616;10.032;2022-08-19T10:08:14;17.87;;;11.37;;
10872;SDS011;34586;53.616;10.032;2022-08-19T10:10:44;20.80;;;11.90;;
10872;SDS011;34586;53.616;10.032;2022-08-19T10:13:11;20.47;;;13.17;;
10872;SDS011;34586;53.616;10.032;2022-08-19T10:15:39;19.93;;;11.87;;
10872;SDS011;34586;53.616;10.032;2022-08-19T10:18:05;17.57;;;11.90;;
10872;SDS011;34586;53.616;10.032;2022-08-19T10:20:32;13.93;;;10.53;;
10872;SDS011;34586;53.616;10.032;2022-08-19T10:22:57;17.33;;;10.60;;
10872;SDS011;34586;53.616;10.032;2022-08-19T10:25:26;15.87;;;10.90;;
10872;SDS011;34586;53.616;10.032;2022-08-19T10:27:51;40.30;;;13.73;;
10872;SDS011;34586;53.616;10.032;2022-08-19T10:30:18;19.63;;;11.67;;
10872;SDS011;34586;53.616;10.032;2022-08-19T10:32:44;15.53;;;11.83;;
10872;SDS011;34586;53.616;10.032;2022-08-19T10:35:10;16.20;;;12.20;;
10872;SDS011;34586;53.616;10.032;2022-08-19T10:37:37;18.37;;;13.37;;
10872;SDS011;34586;53.616;10.032;2022-08-19T10:40:04;15.63;;;13.73;;
10872;SDS011;34586;53.616;10.032;2022-08-19T10:42:32;16.30;;;12.10;;
10872;SDS011;34586;53.616;10.032;2022-08-19T10:44:59;20.77;;;13.20;;
10872;SDS011;34586;53.616;10.032;2022-08-19T10:47:25;14.03;;;11.70;;
10872;SDS011;34586;53.616;10.032;2022-08-19T10:49:50;20.07;;;12.83;;
10872;SDS011;34586;53.616;10.032;2022-08-19T10:52:45;18.97;;;12.57;;
10872;SDS011;34586;53.616;10.032;2022-08-19T10:55:11;18.70;;;12.57;;
10872;SDS011;34586;53.616;10.032;2022-08-19T10:57:56;18.30;;;12.53;;
10872;SDS011;34586;53.616;10.032;2022-08-19T11:00:22;14.50;;;12.57;;
10872;SDS011;34586;53.616;10.032;2022-08-19T11:02:49;21.53;;;13.77;;
10872;SDS011;34586;53.616;10.032;2022-08-19T11:05:15;16.53;;;13.63;;
10872;SDS011;34586;53.616;10.032;2022-08-19T11:07:42;19.50;;;12.97;;
10872;SDS011;34586;53.616;10.032;2022-08-19T11:10:09;19.67;;;12.60;;
10872;SDS011;34586;53.616;10.032;2022-08-19T11:12:37;16.23;;;11.77;;
10872;SDS011;34586;53.616;10.032;2022-08-19T11:15:05;19.77;;;13.60;;
10872;SDS011;34586;53.616;10.032;2022-08-19T11:17:32;16.17;;;11.53;;
10872;SDS011;34586;53.616;10.032;2022-08-19T11:19:58;21.20;;;13.40;;
10872;SDS011;34586;53.616;10.032;2022-08-19T11:22:27;21.77;;;13.37;;
10872;SDS011;34586;53.616;10.032;2022-08-19T11:24:52;16.87;;;12.13;;
10872;SDS011;34586;53.616;10.032;2022-08-19T11:27:18;19.20;;;13.33;;
10872;SDS011;34586;53.616;10.032;2022-08-19T11:29:43;15.77;;;12.30;;
10872;SDS011;34586;53.616;10.032;2022-08-19T11:35:28;13.87;;;10.97;;
10872;SDS011;34586;53.616;10.032;2022-08-19T11:37:54;17.43;;;12.73;;
10872;SDS011;34586;53.616;10.032;2022-08-19T11:40:22;12.70;;;9.67;;
10872;SDS011;34586;53.616;10.032;2022-08-19T11:42:48;16.20;;;11.57;;
10872;SDS011;34586;53.616;10.032;2022-08-19T11:45:22;13.13;;;9.13;;
10872;SDS011;34586;53.616;10.032;2022-08-19T11:47:51;14.13;;;9.33;;
10872;SDS011;34586;53.616;10.032;2022-08-19T11:50:17;11.97;;;10.63;;
10872;SDS011;34586;53.616;10.032;2022-08-19T11:52:43;12.23;;;10.07;;
10872;SDS011;34586;53.616;10.032;2022-08-19T11:55:10;10.37;;;9.27;;
10872;SDS011;34586;53.616;10.032;2022-08-19T11:57:36;9.70;;;8.47;;
10872;SDS011;34586;53.616;10.032;2022-08-19T12:00:03;9.73;;;8.60;;
10872;SDS011;34586;53.616;10.032;2022-08-19T12:02:31;7.70;;;7.00;;
10872;SDS011;34586;53.616;10.032;2022-08-19T12:04:57;11.27;;;7.93;;
10872;SDS011;34586;53.616;10.032;2022-08-19T12:07:22;11.23;;;8.30;;
10872;SDS011;34586;53.616;10.032;2022-08-19T12:09:49;9.97;;;7.60;;
10872;SDS011;34586;53.616;10.032;2022-08-19T12:12:15;10.97;;;8.50;;
10872;SDS011;34586;53.616;10.032;2022-08-19T12:14:41;8.70;;;7.73;;
10872;SDS011;34586;53.616;10.032;2022-08-19T12:17:06;9.33;;;8.00;;
10872;SDS011;34586;53.616;10.032;2022-08-19T12:19:35;10.60;;;8.87;;
10872;SDS011;34586;53.616;10.032;2022-08-19T12:22:02;10.73;;;8.20;;
10872;SDS011;34586;53.616;10.032;2022-08-19T12:24:30;9.07;;;7.73;;
10872;SDS011;34586;53.616;10.032;2022-08-19T12:26:56;10.17;;;7.33;;
10872;SDS011;34586;53.616;10.032;2022-08-19T12:29:23;8.93;;;7.17;;
10872;SDS011;34586;53.616;10.032;2022-08-19T12:31:53;9.23;;;7.00;;
10872;SDS011;34586;53.616;10.032;2022-08-19T12:34:19;11.30;;;7.40;;
10872;SDS011;34586;53.616;10.032;2022-08-19T12:36:45;8.77;;;6.97;;
10872;SDS011;34586;53.616;10.032;2022-08-19T12:39:10;8.70;;;7.10;;
10872;SDS011;34586;53.616;10.032;2022-08-19T12:41:36;10.80;;;7.40;;
10872;SDS011;34586;53.616;10.032;2022-08-19T12:44:02;10.80;;;9.03;;
10872;SDS011;34586;53.616;10.032;2022-08-19T12:46:28;9.90;;;7.03;;
10872;SDS011;34586;53.616;10.032;2022-08-19T12:48:53;9.90;;;8.27;;
10872;SDS011;34586;53.616;10.032;2022-08-19T12:51:19;9.30;;;8.20;;
10872;SDS011;34586;53.616;10.032;2022-08-19T12:53:45;10.53;;;8.43;;
10872;SDS011;34586;53.616;10.032;2022-08-19T12:56:11;8.23;;;7.50;;
10872;SDS011;34586;53.616;10.032;2022-08-19T12:58:39;8.10;;;7.33;;
10872;SDS011;34586;53.616;10.032;2022-08-19T13:01:10;6.93;;;6.30;;
10872;SDS011;34586;53.616;10.032;2022-08-19T13:03:38;11.03;;;8.70;;
10872;SDS011;34586;53.616;10.032;2022-08-19T13:06:04;7.67;;;6.80;;
10872;SDS011;34586;53.616;10.032;2022-08-19T13:08:30;8.60;;;7.80;;
10872;SDS011;34586;53.616;10.032;2022-08-19T13:10:57;9.13;;;8.07;;
10872;SDS011;34586;53.616;10.032;2022-08-19T13:13:23;11.57;;;10.37;;
10872;SDS011;34586;53.616;10.032;2022-08-19T13:15:51;8.33;;;7.47;;
10872;SDS011;34586;53.616;10.032;2022-08-19T13:18:16;8.80;;;8.00;;
10872;SDS011;34586;53.616;10.032;2022-08-19T13:20:42;7.87;;;7.23;;
10872;SDS011;34586;53.616;10.032;2022-08-19T13:23:08;7.83;;;7.03;;
10872;SDS011;34586;53.616;10.032;2022-08-19T13:25:34;8.73;;;7.07;;
10872;SDS011;34586;53.616;10.032;2022-08-19T13:28:01;7.30;;;6.60;;
10872;SDS011;34586;53.616;10.032;2022-08-19T13:30:26;7.67;;;6.90;;
10872;SDS011;34586;53.616;10.032;2022-08-19T13:33:11;6.97;;;5.97;;
10872;SDS011;34586;53.616;10.032;2022-08-19T13:35:39;9.33;;;8.10;;
10872;SDS011;34586;53.616;10.032;2022-08-19T13:38:05;8.50;;;7.63;;
10872;SDS011;34586;53.616;10.032;2022-08-19T13:40:31;8.77;;;7.80;;
10872;SDS011;34586;53.616;10.032;2022-08-19T13:43:01;7.83;;;7.13;;
10872;SDS011;34586;53.616;10.032;2022-08-19T13:45:29;8.77;;;7.90;;
10872;SDS011;34586;53.616;10.032;2022-08-19T13:48:00;7.97;;;7.27;;
10872;SDS011;34586;53.616;10.032;2022-08-19T13:50:31;7.50;;;6.90;;
10872;SDS011;34586;53.616;10.032;2022-08-19T13:52:58;7.50;;;6.80;;
10872;SDS011;34586;53.616;10.032;2022-08-19T13:55:25;7.83;;;6.73;;
10872;SDS011;34586;53.616;10.032;2022-08-19T13:57:52;7.50;;;6.90;;
10872;SDS011;34586;53.616;10.032;2022-08-19T14:00:20;6.43;;;5.83;;
10872;SDS011;34586;53.616;10.032;2022-08-19T14:02:47;7.07;;;6.40;;
10872;SDS011;34586;53.616;10.032;2022-08-19T14:05:16;6.70;;;6.10;;
10872;SDS011;34586;53.616;10.032;2022-08-19T14:07:42;8.00;;;7.23;;
10872;SDS011;34586;53.616;10.032;2022-08-19T14:10:09;7.20;;;6.53;;
10872;SDS011;34586;53.616;10.032;2022-08-19T14:12:36;7.03;;;6.43;;
10872;SDS011;34586;53.616;10.032;2022-08-19T14:15:02;7.23;;;6.60;;
10872;SDS011;34586;53.616;10.032;2022-08-19T14:17:29;6.67;;;6.07;;
10872;SDS011;34586;53.616;10.032;2022-08-19T14:19:59;6.53;;;6.03;;
10872;SDS011;34586;53.616;10.032;2022-08-19T14:22:31;6.93;;;6.43;;
10872;SDS011;34586;53.616;10.032;2022-08-19T14:25:00;7.73;;;6.97;;
10872;SDS011;34586;53.616;10.032;2022-08-19T14:27:25;8.10;;;7.40;;